الصفحة الرئيسية
METAR-TAF:

METAR-TAF

مطار :

مطار لندن هيثرو, إنجلترا

دائرة عرض: 51-29N, خط طول: 000-27W, ارتفاع: 24 متر

مراقبة الطقس الحالي

تاريخ ووقت الإصدار 23 دقيقة قبل الساعة 21:50UTC
ريح 3 عقدةمن اتجاهات متغيرة
درجة الحرارة 14°درجة مئوية
الرطوبة 88%
ضغط 1024 hPa
الرؤية 10 كم أو أكثر

METAR: EGLL 172150Z AUTO VRB03KT 9999 NCD 14/12 Q1024 NOSIG

زمن: 23:13 (22:13 UTC)

توقعات

تاريخ ووقت الإصدار 5ساعات و 11 دقيقة قبل الساعة 17:02UTC
التوقعات صالحة من17 الساعة 18 UTC إلى 18 الساعة 24 UTC
ريح 3 عقدةمن اتجاهات متغيرة
الرؤية 10 كم أو أكثر
غيوم متفرقة على ارتفاع 3000 قدم
نظرية الاحتمالات 40% :
مؤقت
من 17 الساعة 18 UTC إلى 17 الساعة 20 UTC
الرؤية: 6000 متر
غيوم مفككة على ارتفاع 800 قدم
مطر خفيف, رذاذ
أصبح
من 18 الساعة 03 UTC إلى 18 الساعة 06 UTC
ريح 10 عقدة من الشمال/الشمال الشرقي
نظرية الاحتمالات 40% :
مؤقت
من 18 الساعة 04 UTC إلى 18 الساعة 09 UTC
الرؤية: 7000 متر
غيوم مفككة على ارتفاع 600 قدم

TAF: EGLL 171702Z 1718/1824 VRB03KT 9999 SCT030 PROB40 TEMPO 1718/1720 6000 -RADZ BKN008 BECMG 1803/1806 03010KT PROB40 TEMPO 1804/1809 7000 BKN006

أرصاد الطقس والتوقعات من أكثر من 4000 مطار (تقارير الطقس للمطار METAR والتنبؤ بالطقس بالمطارTAF).

المحطات المتاحة هي النقط الصفراء والحمراء على الخريطة.

حرك المؤشر فوق النقطة لمعرفة اسم المحطة.

ثم انقر لمعرفة أرصاد وتوقعات الطقس.

لتغيير الخارطة: اضغط على الأزرار الخضراء مع رمز الصليب الأسود للتكبير. على الزر الأخضر مع شرطة للتصغير، أو على الأسهم الخضراء للخرائط المجاورة.


METAR-TAF: